sensor_id;sensor_type;location;lat;lon;timestamp;pressure;altitude;pressure_sealevel;temperature;humidity
3260;BME280;22469;48.150;14.004;2022-10-26T00:01:13;98339.84;;;12.38;71.83
3260;BME280;22469;48.150;14.004;2022-10-26T00:03:43;98343.19;;;12.40;71.77
3260;BME280;22469;48.150;14.004;2022-10-26T00:06:20;98340.50;;;12.43;71.62
3260;BME280;22469;48.150;14.004;2022-10-26T00:08:50;98337.03;;;12.44;71.56
3260;BME280;22469;48.150;14.004;2022-10-26T00:11:18;98333.63;;;12.44;71.51
3260;BME280;22469;48.150;14.004;2022-10-26T00:13:46;98327.66;;;12.43;71.27
3260;BME280;22469;48.150;14.004;2022-10-26T00:16:17;98325.16;;;12.42;71.32
3260;BME280;22469;48.150;14.004;2022-10-26T00:18:47;98326.91;;;12.40;71.63
3260;BME280;22469;48.150;14.004;2022-10-26T00:21:14;98319.09;;;12.43;71.57
3260;BME280;22469;48.150;14.004;2022-10-26T00:23:42;98318.31;;;12.41;71.60
3260;BME280;22469;48.150;14.004;2022-10-26T00:26:10;98320.41;;;12.29;71.79
3260;BME280;22469;48.150;14.004;2022-10-26T00:28:37;98320.84;;;12.17;72.39
3260;BME280;22469;48.150;14.004;2022-10-26T00:31:07;98331.34;;;12.09;72.89
3260;BME280;22469;48.150;14.004;2022-10-26T00:33:37;98334.09;;;12.05;73.13
3260;BME280;22469;48.150;14.004;2022-10-26T00:36:05;98342.88;;;11.98;73.82
3260;BME280;22469;48.150;14.004;2022-10-26T00:38:35;98339.84;;;11.85;74.36
3260;BME280;22469;48.150;14.004;2022-10-26T00:41:04;98344.06;;;11.88;74.07
3260;BME280;22469;48.150;14.004;2022-10-26T00:43:32;98338.13;;;11.85;74.11
3260;BME280;22469;48.150;14.004;2022-10-26T00:46:02;98334.72;;;11.85;74.36
3260;BME280;22469;48.150;14.004;2022-10-26T00:48:40;98336.38;;;11.88;74.56
3260;BME280;22469;48.150;14.004;2022-10-26T00:53:51;98324.25;;;11.91;74.60
3260;BME280;22469;48.150;14.004;2022-10-26T00:56:19;98324.19;;;11.93;74.27
3260;BME280;22469;48.150;14.004;2022-10-26T00:58:47;98320.69;;;11.95;73.86
3260;BME280;22469;48.150;14.004;2022-10-26T01:01:14;98328.38;;;11.97;74.40
3260;BME280;22469;48.150;14.004;2022-10-26T01:03:42;98319.00;;;11.94;74.49
3260;BME280;22469;48.150;14.004;2022-10-26T01:06:10;98330.22;;;11.92;75.09
3260;BME280;22469;48.150;14.004;2022-10-26T01:08:39;98339.84;;;11.87;75.71
3260;BME280;22469;48.150;14.004;2022-10-26T01:11:07;98345.50;;;11.68;76.87
3260;BME280;22469;48.150;14.004;2022-10-26T01:13:36;98349.97;;;11.61;77.28
3260;BME280;22469;48.150;14.004;2022-10-26T01:19:51;98340.22;;;11.73;76.81
3260;BME280;22469;48.150;14.004;2022-10-26T01:22:15;98324.44;;;11.85;77.19
3260;BME280;22469;48.150;14.004;2022-10-26T01:25:19;98319.91;;;11.93;76.36
3260;BME280;22469;48.150;14.004;2022-10-26T01:28:18;98307.72;;;11.98;76.63
3260;BME280;22469;48.150;14.004;2022-10-26T01:30:51;98315.28;;;12.03;76.01
3260;BME280;22469;48.150;14.004;2022-10-26T01:36:54;98315.78;;;12.14;75.85
3260;BME280;22469;48.150;14.004;2022-10-26T01:39:30;98318.41;;;12.13;75.98
3260;BME280;22469;48.150;14.004;2022-10-26T01:42:04;98308.19;;;12.11;75.80
3260;BME280;22469;48.150;14.004;2022-10-26T01:44:38;98311.59;;;12.12;76.04
3260;BME280;22469;48.150;14.004;2022-10-26T01:47:11;98302.94;;;12.14;75.95
3260;BME280;22469;48.150;14.004;2022-10-26T01:49:50;98298.44;;;12.21;75.66
3260;BME280;22469;48.150;14.004;2022-10-26T01:52:20;98298.34;;;12.22;75.64
3260;BME280;22469;48.150;14.004;2022-10-26T01:54:48;98284.59;;;12.23;75.82
3260;BME280;22469;48.150;14.004;2022-10-26T01:57:20;98278.53;;;12.26;75.97
3260;BME280;22469;48.150;14.004;2022-10-26T01:59:52;98275.94;;;12.26;75.75
3260;BME280;22469;48.150;14.004;2022-10-26T02:11:16;98295.06;;;12.19;75.58
3260;BME280;22469;48.150;14.004;2022-10-26T02:22:19;98288.81;;;12.01;76.90
3260;BME280;22469;48.150;14.004;2022-10-26T02:24:52;98289.38;;;12.09;76.48
3260;BME280;22469;48.150;14.004;2022-10-26T02:27:23;98292.59;;;12.16;76.59
3260;BME280;22469;48.150;14.004;2022-10-26T02:29:54;98294.16;;;12.20;76.32
3260;BME280;22469;48.150;14.004;2022-10-26T02:32:25;98291.53;;;12.21;76.46
3260;BME280;22469;48.150;14.004;2022-10-26T02:34:56;98288.06;;;12.22;76.31
3260;BME280;22469;48.150;14.004;2022-10-26T02:37:26;98281.94;;;12.26;76.40
3260;BME280;22469;48.150;14.004;2022-10-26T02:39:55;98280.94;;;12.30;76.55
3260;BME280;22469;48.150;14.004;2022-10-26T02:42:24;98282.66;;;12.30;76.30
3260;BME280;22469;48.150;14.004;2022-10-26T02:45:01;98285.94;;;12.35;76.27
3260;BME280;22469;48.150;14.004;2022-10-26T02:47:31;98285.88;;;12.37;76.25
3260;BME280;22469;48.150;14.004;2022-10-26T02:49:58;98284.22;;;12.34;76.19
3260;BME280;22469;48.150;14.004;2022-10-26T02:52:53;98284.13;;;12.37;76.23
3260;BME280;22469;48.150;14.004;2022-10-26T02:55:39;98280.72;;;12.37;76.40
3260;BME280;22469;48.150;14.004;2022-10-26T02:58:17;98301.38;;;12.35;76.32
3260;BME280;22469;48.150;14.004;2022-10-26T03:00:48;98300.38;;;12.14;77.12
3260;BME280;22469;48.150;14.004;2022-10-26T03:03:17;98303.66;;;12.18;77.06
3260;BME280;22469;48.150;14.004;2022-10-26T03:05:45;98300.19;;;12.19;77.11
3260;BME280;22469;48.150;14.004;2022-10-26T03:08:12;98297.47;;;12.23;77.08
3260;BME280;22469;48.150;14.004;2022-10-26T03:10:41;98282.72;;;12.28;76.67
3260;BME280;22469;48.150;14.004;2022-10-26T03:13:11;98302.22;;;12.34;76.75
3260;BME280;22469;48.150;14.004;2022-10-26T03:15:38;98302.19;;;12.36;76.64
3260;BME280;22469;48.150;14.004;2022-10-26T03:18:05;98294.41;;;12.37;76.56
3260;BME280;22469;48.150;14.004;2022-10-26T03:20:33;98312.53;;;12.34;76.69
3260;BME280;22469;48.150;14.004;2022-10-26T03:23:01;98318.63;;;12.31;77.08
3260;BME280;22469;48.150;14.004;2022-10-26T03:25:28;98330.69;;;12.29;77.58
3260;BME280;22469;48.150;14.004;2022-10-26T03:27:59;98340.69;;;12.39;77.27
3260;BME280;22469;48.150;14.004;2022-10-26T03:30:28;98336.16;;;12.45;77.11
3260;BME280;22469;48.150;14.004;2022-10-26T03:32:57;98317.09;;;12.51;77.11
3260;BME280;22469;48.150;14.004;2022-10-26T03:35:24;98304.22;;;12.51;77.00
3260;BME280;22469;48.150;14.004;2022-10-26T03:37:51;98308.53;;;12.50;77.21
3260;BME280;22469;48.150;14.004;2022-10-26T03:40:18;98314.41;;;12.54;77.12
3260;BME280;22469;48.150;14.004;2022-10-26T03:42:45;98310.88;;;12.58;77.03
3260;BME280;22469;48.150;14.004;2022-10-26T03:45:13;98322.00;;;12.59;76.84
3260;BME280;22469;48.150;14.004;2022-10-26T03:47:44;98335.63;;;12.61;76.90
3260;BME280;22469;48.150;14.004;2022-10-26T03:50:15;98330.47;;;12.61;76.86
3260;BME280;22469;48.150;14.004;2022-10-26T03:52:45;98319.25;;;12.63;76.98
3260;BME280;22469;48.150;14.004;2022-10-26T03:55:15;98317.34;;;12.68;76.91
3260;BME280;22469;48.150;14.004;2022-10-26T03:57:43;98314.81;;;12.67;77.19
3260;BME280;22469;48.150;14.004;2022-10-26T04:00:13;98318.09;;;12.72;76.95
3260;BME280;22469;48.150;14.004;2022-10-26T04:02:42;98331.72;;;12.74;76.98
3260;BME280;22469;48.150;14.004;2022-10-26T04:05:15;98341.25;;;12.72;77.28
3260;BME280;22469;48.150;14.004;2022-10-26T04:07:42;98345.50;;;12.73;77.69
3260;BME280;22469;48.150;14.004;2022-10-26T04:10:10;98354.06;;;12.73;78.11
3260;BME280;22469;48.150;14.004;2022-10-26T04:12:38;98361.88;;;12.70;77.93
3260;BME280;22469;48.150;14.004;2022-10-26T04:15:05;98352.78;;;12.85;77.59
3260;BME280;22469;48.150;14.004;2022-10-26T04:17:33;98353.16;;;12.99;77.04
3260;BME280;22469;48.150;14.004;2022-10-26T04:20:00;98345.06;;;13.09;76.53
3260;BME280;22469;48.150;14.004;2022-10-26T04:22:27;98357.72;;;13.15;76.45
3260;BME280;22469;48.150;14.004;2022-10-26T04:24:54;98364.53;;;13.16;76.51
3260;BME280;22469;48.150;14.004;2022-10-26T04:27:21;98348.25;;;13.15;76.55
3260;BME280;22469;48.150;14.004;2022-10-26T04:29:48;98351.72;;;13.14;76.60
3260;BME280;22469;48.150;14.004;2022-10-26T04:32:15;98333.81;;;13.11;76.74
3260;BME280;22469;48.150;14.004;2022-10-26T04:34:42;98328.13;;;13.03;76.98
3260;BME280;22469;48.150;14.004;2022-10-26T04:37:09;98323.06;;;13.00;77.13
3260;BME280;22469;48.150;14.004;2022-10-26T04:39:36;98314.56;;;12.98;77.27
3260;BME280;22469;48.150;14.004;2022-10-26T04:42:03;98293.84;;;13.01;77.41
3260;BME280;22469;48.150;14.004;2022-10-26T04:44:30;98290.31;;;13.03;77.20
3260;BME280;22469;48.150;14.004;2022-10-26T04:46:58;98316.13;;;13.02;76.87
3260;BME280;22469;48.150;14.004;2022-10-26T04:49:25;98330.69;;;13.03;76.80
3260;BME280;22469;48.150;14.004;2022-10-26T04:51:52;98335.84;;;13.03;77.44
3260;BME280;22469;48.150;14.004;2022-10-26T04:54:19;98341.16;;;12.98;77.58
3260;BME280;22469;48.150;14.004;2022-10-26T04:56:46;98331.53;;;13.03;77.48
3260;BME280;22469;48.150;14.004;2022-10-26T04:59:13;98327.88;;;13.09;77.25
3260;BME280;22469;48.150;14.004;2022-10-26T05:01:40;98312.38;;;13.11;77.16
3260;BME280;22469;48.150;14.004;2022-10-26T05:04:07;98314.00;;;13.13;77.27
3260;BME280;22469;48.150;14.004;2022-10-26T05:06:34;98317.63;;;13.08;77.07
3260;BME280;22469;48.150;14.004;2022-10-26T05:09:02;98320.31;;;13.04;77.44
3260;BME280;22469;48.150;14.004;2022-10-26T05:11:29;98307.16;;;13.12;77.16
3260;BME280;22469;48.150;14.004;2022-10-26T05:13:56;98298.44;;;13.16;77.16
3260;BME280;22469;48.150;14.004;2022-10-26T05:16:23;98297.47;;;13.19;77.12
3260;BME280;22469;48.150;14.004;2022-10-26T05:18:50;98295.59;;;13.22;77.02
3260;BME280;22469;48.150;14.004;2022-10-26T05:21:17;98296.44;;;13.23;76.90
3260;BME280;22469;48.150;14.004;2022-10-26T05:23:51;98306.66;;;13.26;76.89
3260;BME280;22469;48.150;14.004;2022-10-26T05:26:22;98305.00;;;13.25;76.83
3260;BME280;22469;48.150;14.004;2022-10-26T05:28:50;98307.47;;;13.28;76.84
3260;BME280;22469;48.150;14.004;2022-10-26T05:31:19;98312.50;;;13.31;76.54
3260;BME280;22469;48.150;14.004;2022-10-26T05:33:50;98315.78;;;13.35;77.11
3260;BME280;22469;48.150;14.004;2022-10-26T05:36:17;98308.00;;;13.36;76.80
3260;BME280;22469;48.150;14.004;2022-10-26T05:38:45;98307.88;;;13.39;76.65
3260;BME280;22469;48.150;14.004;2022-10-26T05:41:12;98315.50;;;13.42;76.65
3260;BME280;22469;48.150;14.004;2022-10-26T05:43:39;98321.38;;;13.46;76.32
3260;BME280;22469;48.150;14.004;2022-10-26T05:46:06;98323.94;;;13.46;76.64
3260;BME280;22469;48.150;14.004;2022-10-26T05:48:33;98319.47;;;13.51;76.57
3260;BME280;22469;48.150;14.004;2022-10-26T05:51:00;98317.59;;;13.55;76.59
3260;BME280;22469;48.150;14.004;2022-10-26T05:53:27;98310.59;;;13.58;76.48
3260;BME280;22469;48.150;14.004;2022-10-26T05:55:56;98323.41;;;13.60;76.51
3260;BME280;22469;48.150;14.004;2022-10-26T05:58:24;98317.50;;;13.58;76.45
3260;BME280;22469;48.150;14.004;2022-10-26T06:01:18;98329.34;;;13.62;76.36
3260;BME280;22469;48.150;14.004;2022-10-26T06:03:49;98343.19;;;13.59;76.51
3260;BME280;22469;48.150;14.004;2022-10-26T06:06:36;98361.03;;;13.42;76.95
3260;BME280;22469;48.150;14.004;2022-10-26T06:09:09;98373.38;;;13.34;77.40
3260;BME280;22469;48.150;14.004;2022-10-26T06:11:38;98384.81;;;13.26;77.71
3260;BME280;22469;48.150;14.004;2022-10-26T06:14:05;98392.41;;;13.30;77.41
3260;BME280;22469;48.150;14.004;2022-10-26T06:16:52;98389.59;;;13.36;77.28
3260;BME280;22469;48.150;14.004;2022-10-26T06:23:14;98397.91;;;13.44;77.18
3260;BME280;22469;48.150;14.004;2022-10-26T06:31:50;98407.63;;;13.36;77.39
3260;BME280;22469;48.150;14.004;2022-10-26T06:34:28;98399.56;;;13.45;77.11
3260;BME280;22469;48.150;14.004;2022-10-26T06:37:00;98405.28;;;13.53;77.08
3260;BME280;22469;48.150;14.004;2022-10-26T06:39:30;98403.28;;;13.61;77.07
3260;BME280;22469;48.150;14.004;2022-10-26T06:42:02;98406.56;;;13.65;76.86
3260;BME280;22469;48.150;14.004;2022-10-26T06:44:29;98401.19;;;13.71;76.94
3260;BME280;22469;48.150;14.004;2022-10-26T06:47:15;98399.25;;;13.76;76.63
3260;BME280;22469;48.150;14.004;2022-10-26T06:50:26;98396.56;;;13.79;76.54
3260;BME280;22469;48.150;14.004;2022-10-26T06:53:17;98401.59;;;13.82;76.38
3260;BME280;22469;48.150;14.004;2022-10-26T06:55:49;98404.94;;;13.84;76.02
3260;BME280;22469;48.150;14.004;2022-10-26T06:58:19;98415.13;;;13.87;76.13
3260;BME280;22469;48.150;14.004;2022-10-26T07:00:49;98419.41;;;13.88;76.32
3260;BME280;22469;48.150;14.004;2022-10-26T07:03:18;98419.34;;;13.90;76.04
3260;BME280;22469;48.150;14.004;2022-10-26T07:05:45;98416.59;;;13.94;76.05
3260;BME280;22469;48.150;14.004;2022-10-26T07:08:12;98421.50;;;14.01;76.09
3260;BME280;22469;48.150;14.004;2022-10-26T07:10:39;98417.78;;;14.08;76.10
3260;BME280;22469;48.150;14.004;2022-10-26T07:13:08;98413.28;;;14.13;76.10
3260;BME280;22469;48.150;14.004;2022-10-26T07:15:37;98404.44;;;14.18;76.18
3260;BME280;22469;48.150;14.004;2022-10-26T07:18:07;98405.91;;;14.26;75.42
3260;BME280;22469;48.150;14.004;2022-10-26T07:20:36;98404.16;;;14.26;75.63
3260;BME280;22469;48.150;14.004;2022-10-26T07:23:06;98411.78;;;14.29;75.41
3260;BME280;22469;48.150;14.004;2022-10-26T07:25:37;98411.91;;;14.26;75.53
3260;BME280;22469;48.150;14.004;2022-10-26T07:28:08;98425.53;;;14.30;75.54
3260;BME280;22469;48.150;14.004;2022-10-26T07:30:37;98459.53;;;14.17;75.32
3260;BME280;22469;48.150;14.004;2022-10-26T07:33:08;98476.41;;;13.81;76.59
3260;BME280;22469;48.150;14.004;2022-10-26T07:35:37;98495.56;;;13.75;77.35
3260;BME280;22469;48.150;14.004;2022-10-26T07:38:05;98513.38;;;13.81;77.44
3260;BME280;22469;48.150;14.004;2022-10-26T07:40:32;98536.88;;;13.48;78.99
3260;BME280;22469;48.150;14.004;2022-10-26T07:43:00;98544.63;;;13.48;79.31
3260;BME280;22469;48.150;14.004;2022-10-26T07:45:28;98524.84;;;13.72;78.68
3260;BME280;22469;48.150;14.004;2022-10-26T07:47:56;98525.81;;;13.93;77.92
3260;BME280;22469;48.150;14.004;2022-10-26T07:50:24;98521.19;;;14.02;77.75
3260;BME280;22469;48.150;14.004;2022-10-26T07:52:51;98519.72;;;14.18;77.48
3260;BME280;22469;48.150;14.004;2022-10-26T07:55:19;98512.28;;;14.32;77.33
3260;BME280;22469;48.150;14.004;2022-10-26T07:57:46;98518.84;;;14.41;77.10
3260;BME280;22469;48.150;14.004;2022-10-26T08:00:20;98521.09;;;14.50;76.06
3260;BME280;22469;48.150;14.004;2022-10-26T08:02:47;98527.72;;;14.56;76.68
3260;BME280;22469;48.150;14.004;2022-10-26T08:05:14;98528.53;;;14.58;76.83
3260;BME280;22469;48.150;14.004;2022-10-26T08:07:43;98527.38;;;14.65;76.46
3260;BME280;22469;48.150;14.004;2022-10-26T08:10:13;98516.59;;;14.76;76.67
3260;BME280;22469;48.150;14.004;2022-10-26T08:12:41;98523.31;;;14.80;76.50
3260;BME280;22469;48.150;14.004;2022-10-26T08:15:10;98528.03;;;14.70;76.15
3260;BME280;22469;48.150;14.004;2022-10-26T08:17:38;98523.88;;;14.88;75.77
3260;BME280;22469;48.150;14.004;2022-10-26T08:20:05;98520.59;;;15.05;75.72
3260;BME280;22469;48.150;14.004;2022-10-26T08:22:33;98517.47;;;15.17;76.03
3260;BME280;22469;48.150;14.004;2022-10-26T08:25:00;98496.06;;;15.34;74.86
3260;BME280;22469;48.150;14.004;2022-10-26T08:27:27;98497.47;;;15.41;74.71
3260;BME280;22469;48.150;14.004;2022-10-26T08:29:54;98496.44;;;15.45;74.54
3260;BME280;22469;48.150;14.004;2022-10-26T08:32:21;98495.47;;;15.48;73.61
3260;BME280;22469;48.150;14.004;2022-10-26T08:34:48;98496.03;;;15.54;73.68
3260;BME280;22469;48.150;14.004;2022-10-26T08:37:15;98503.41;;;15.63;73.91
3260;BME280;22469;48.150;14.004;2022-10-26T08:39:42;98510.09;;;15.69;73.99
3260;BME280;22469;48.150;14.004;2022-10-26T08:42:27;98507.63;;;15.66;72.88
3260;BME280;22469;48.150;14.004;2022-10-26T08:45:17;98499.31;;;15.78;73.64
3260;BME280;22469;48.150;14.004;2022-10-26T08:48:05;98493.94;;;15.83;73.31
3260;BME280;22469;48.150;14.004;2022-10-26T08:50:42;98490.34;;;15.85;72.83
3260;BME280;22469;48.150;14.004;2022-10-26T08:53:29;98515.34;;;15.86;72.91
3260;BME280;22469;48.150;14.004;2022-10-26T08:56:28;98516.66;;;15.76;72.47
3260;BME280;22469;48.150;14.004;2022-10-26T08:59:17;98519.03;;;15.81;73.50
3260;BME280;22469;48.150;14.004;2022-10-26T09:01:53;98522.09;;;15.89;73.67
3260;BME280;22469;48.150;14.004;2022-10-26T09:04:25;98514.63;;;16.02;73.25
3260;BME280;22469;48.150;14.004;2022-10-26T09:24:13;98517.81;;;16.45;70.91
3260;BME280;22469;48.150;14.004;2022-10-26T09:29:40;98511.88;;;16.60;71.01
3260;BME280;22469;48.150;14.004;2022-10-26T09:32:30;98510.81;;;16.64;70.50
3260;BME280;22469;48.150;14.004;2022-10-26T09:35:08;98519.06;;;16.72;70.36
3260;BME280;22469;48.150;14.004;2022-10-26T09:37:51;98510.84;;;16.81;70.03
3260;BME280;22469;48.150;14.004;2022-10-26T09:40:39;98507.00;;;16.90;69.54
3260;BME280;22469;48.150;14.004;2022-10-26T09:43:28;98498.97;;;16.95;69.49
3260;BME280;22469;48.150;14.004;2022-10-26T09:46:01;98510.69;;;17.02;70.01
3260;BME280;22469;48.150;14.004;2022-10-26T09:48:59;98510.16;;;17.13;68.53
3260;BME280;22469;48.150;14.004;2022-10-26T09:51:29;98510.88;;;17.16;68.07
3260;BME280;22469;48.150;14.004;2022-10-26T09:53:59;98511.38;;;17.23;67.93
3260;BME280;22469;48.150;14.004;2022-10-26T09:56:28;98505.28;;;17.24;68.21
3260;BME280;22469;48.150;14.004;2022-10-26T09:59:03;98507.56;;;17.30;67.46
3260;BME280;22469;48.150;14.004;2022-10-26T10:01:34;98513.50;;;17.32;67.78
3260;BME280;22469;48.150;14.004;2022-10-26T10:06:43;98521.56;;;17.43;67.14
3260;BME280;22469;48.150;14.004;2022-10-26T10:09:19;98524.31;;;17.58;66.63
3260;BME280;22469;48.150;14.004;2022-10-26T10:11:52;98522.81;;;17.69;65.26
3260;BME280;22469;48.150;14.004;2022-10-26T10:14:53;98530.97;;;17.79;65.71
3260;BME280;22469;48.150;14.004;2022-10-26T10:17:22;98520.03;;;17.90;64.94
3260;BME280;22469;48.150;14.004;2022-10-26T10:19:51;98514.34;;;17.99;65.18
3260;BME280;22469;48.150;14.004;2022-10-26T10:22:20;98504.53;;;18.04;64.58
3260;BME280;22469;48.150;14.004;2022-10-26T10:24:57;98511.69;;;18.16;65.00
3260;BME280;22469;48.150;14.004;2022-10-26T10:27:28;98504.38;;;18.23;65.74
3260;BME280;22469;48.150;14.004;2022-10-26T10:30:18;98507.81;;;18.23;64.83
3260;BME280;22469;48.150;14.004;2022-10-26T10:33:05;98509.41;;;18.26;64.60
3260;BME280;22469;48.150;14.004;2022-10-26T10:35:33;98516.38;;;18.26;64.12
3260;BME280;22469;48.150;14.004;2022-10-26T10:38:01;98514.50;;;18.28;63.91
3260;BME280;22469;48.150;14.004;2022-10-26T10:40:29;98515.94;;;18.33;64.31
3260;BME280;22469;48.150;14.004;2022-10-26T10:43:04;98514.06;;;18.35;64.37
3260;BME280;22469;48.150;14.004;2022-10-26T10:45:37;98503.34;;;18.41;64.63
3260;BME280;22469;48.150;14.004;2022-10-26T10:48:15;98510.47;;;18.54;65.03
3260;BME280;22469;48.150;14.004;2022-10-26T10:50:58;98511.53;;;18.65;65.08
3260;BME280;22469;48.150;14.004;2022-10-26T10:53:48;98509.03;;;18.64;63.95
3260;BME280;22469;48.150;14.004;2022-10-26T10:56:32;98517.56;;;18.66;63.57
3260;BME280;22469;48.150;14.004;2022-10-26T11:08:08;98517.81;;;18.61;63.87
3260;BME280;22469;48.150;14.004;2022-10-26T11:10:43;98513.63;;;18.59;63.50
3260;BME280;22469;48.150;14.004;2022-10-26T11:13:19;98517.72;;;18.63;63.36
3260;BME280;22469;48.150;14.004;2022-10-26T11:16:13;98521.75;;;18.68;63.42
3260;BME280;22469;48.150;14.004;2022-10-26T11:19:17;98512.88;;;18.73;63.23
3260;BME280;22469;48.150;14.004;2022-10-26T11:21:52;98511.97;;;18.74;63.32
3260;BME280;22469;48.150;14.004;2022-10-26T11:27:42;98511.34;;;18.84;63.18
3260;BME280;22469;48.150;14.004;2022-10-26T11:30:23;98513.03;;;18.85;62.21
3260;BME280;22469;48.150;14.004;2022-10-26T11:33:02;98507.16;;;18.82;61.60
3260;BME280;22469;48.150;14.004;2022-10-26T11:39:30;98523.69;;;18.81;61.88
3260;BME280;22469;48.150;14.004;2022-10-26T11:45:19;98509.41;;;18.88;62.29
3260;BME280;22469;48.150;14.004;2022-10-26T11:50:48;98507.78;;;19.01;62.87
3260;BME280;22469;48.150;14.004;2022-10-26T11:53:22;98503.13;;;19.06;62.08
3260;BME280;22469;48.150;14.004;2022-10-26T11:55:52;98503.06;;;19.08;61.94
3260;BME280;22469;48.150;14.004;2022-10-26T11:58:33;98510.31;;;19.17;61.72
3260;BME280;22469;48.150;14.004;2022-10-26T12:01:08;98506.03;;;19.30;62.40
3260;BME280;22469;48.150;14.004;2022-10-26T12:03:40;98501.97;;;19.40;62.47
3260;BME280;22469;48.150;14.004;2022-10-26T12:06:13;98501.44;;;19.50;61.43
3260;BME280;22469;48.150;14.004;2022-10-26T12:08:45;98521.00;;;19.55;61.91
3260;BME280;22469;48.150;14.004;2022-10-26T12:11:48;98517.16;;;19.62;61.12
3260;BME280;22469;48.150;14.004;2022-10-26T12:14:34;98508.31;;;19.65;61.08
3260;BME280;22469;48.150;14.004;2022-10-26T12:17:14;98514.28;;;19.67;61.30
3260;BME280;22469;48.150;14.004;2022-10-26T12:23:19;98512.63;;;19.66;60.97
3260;BME280;22469;48.150;14.004;2022-10-26T12:34:11;98513.63;;;19.78;60.71
3260;BME280;22469;48.150;14.004;2022-10-26T12:44:38;98519.75;;;19.91;60.85
3260;BME280;22469;48.150;14.004;2022-10-26T13:03:39;98533.97;;;19.85;61.83
3260;BME280;22469;48.150;14.004;2022-10-26T13:09:29;98532.13;;;19.87;61.92
3260;BME280;22469;48.150;14.004;2022-10-26T13:12:00;98532.59;;;19.80;62.43
3260;BME280;22469;48.150;14.004;2022-10-26T13:14:32;98531.00;;;19.77;62.10
3260;BME280;22469;48.150;14.004;2022-10-26T13:17:04;98531.09;;;19.76;62.28
3260;BME280;22469;48.150;14.004;2022-10-26T13:19:47;98537.16;;;19.76;62.04
3260;BME280;22469;48.150;14.004;2022-10-26T13:22:18;98538.16;;;19.74;61.66
3260;BME280;22469;48.150;14.004;2022-10-26T13:24:57;98541.31;;;19.79;61.78
3260;BME280;22469;48.150;14.004;2022-10-26T13:32:37;98523.09;;;19.79;61.66
3260;BME280;22469;48.150;14.004;2022-10-26T13:35:12;98532.03;;;19.75;62.03
3260;BME280;22469;48.150;14.004;2022-10-26T13:37:44;98549.06;;;19.66;63.06
3260;BME280;22469;48.150;14.004;2022-10-26T13:40:17;98562.91;;;19.67;63.61
3260;BME280;22469;48.150;14.004;2022-10-26T13:42:53;98565.41;;;19.68;63.34
3260;BME280;22469;48.150;14.004;2022-10-26T13:45:27;98557.34;;;19.73;63.30
3260;BME280;22469;48.150;14.004;2022-10-26T13:51:11;98541.31;;;19.64;62.86
3260;BME280;22469;48.150;14.004;2022-10-26T13:53:56;98553.13;;;19.70;62.89
3260;BME280;22469;48.150;14.004;2022-10-26T13:56:35;98563.09;;;19.63;64.12
3260;BME280;22469;48.150;14.004;2022-10-26T13:59:09;98572.16;;;19.56;64.87
3260;BME280;22469;48.150;14.004;2022-10-26T14:01:39;98566.66;;;19.61;64.38
3260;BME280;22469;48.150;14.004;2022-10-26T14:04:35;98559.47;;;19.66;64.10
3260;BME280;22469;48.150;14.004;2022-10-26T14:07:02;98562.91;;;19.67;63.61
3260;BME280;22469;48.150;14.004;2022-10-26T14:09:30;98554.81;;;19.71;63.72
3260;BME280;22469;48.150;14.004;2022-10-26T14:11:59;98558.16;;;19.73;63.47
3260;BME280;22469;48.150;14.004;2022-10-26T14:14:32;98562.25;;;19.77;63.27
3260;BME280;22469;48.150;14.004;2022-10-26T14:17:01;98555.28;;;19.78;63.48
3260;BME280;22469;48.150;14.004;2022-10-26T14:19:36;98552.50;;;19.81;62.87
3260;BME280;22469;48.150;14.004;2022-10-26T14:22:05;98559.34;;;19.82;63.30
3260;BME280;22469;48.150;14.004;2022-10-26T14:24:34;98555.84;;;19.83;63.03
3260;BME280;22469;48.150;14.004;2022-10-26T14:27:17;98560.75;;;19.87;63.53
3260;BME280;22469;48.150;14.004;2022-10-26T14:29:46;98560.00;;;19.85;63.56
3260;BME280;22469;48.150;14.004;2022-10-26T14:32:33;98561.97;;;19.82;62.71
3260;BME280;22469;48.150;14.004;2022-10-26T14:35:02;98562.72;;;19.84;62.84
3260;BME280;22469;48.150;14.004;2022-10-26T14:39:56;98564.75;;;19.79;63.21
3260;BME280;22469;48.150;14.004;2022-10-26T14:42:32;98576.66;;;19.69;63.17
3260;BME280;22469;48.150;14.004;2022-10-26T14:45:02;98576.00;;;19.65;63.35
3260;BME280;22469;48.150;14.004;2022-10-26T14:47:31;98584.44;;;19.69;63.91
3260;BME280;22469;48.150;14.004;2022-10-26T14:50:00;98576.81;;;19.65;64.16
3260;BME280;22469;48.150;14.004;2022-10-26T14:52:33;98583.06;;;19.63;64.62
3260;BME280;22469;48.150;14.004;2022-10-26T14:55:13;98582.28;;;19.61;64.42
3260;BME280;22469;48.150;14.004;2022-10-26T14:57:43;98592.16;;;19.56;64.68
3260;BME280;22469;48.150;14.004;2022-10-26T15:00:23;98599.84;;;19.57;64.88
3260;BME280;22469;48.150;14.004;2022-10-26T15:02:53;98606.44;;;19.49;65.32
3260;BME280;22469;48.150;14.004;2022-10-26T15:05:33;98612.06;;;19.41;65.59
3260;BME280;22469;48.150;14.004;2022-10-26T15:08:01;98611.53;;;19.36;65.94
3260;BME280;22469;48.150;14.004;2022-10-26T15:13:23;98607.22;;;19.35;65.66
3260;BME280;22469;48.150;14.004;2022-10-26T15:15:57;98604.16;;;19.28;66.15
3260;BME280;22469;48.150;14.004;2022-10-26T15:18:35;98601.56;;;19.28;66.39
3260;BME280;22469;48.150;14.004;2022-10-26T15:21:35;98605.06;;;19.27;66.41
3260;BME280;22469;48.150;14.004;2022-10-26T15:24:36;98621.78;;;19.23;66.93
3260;BME280;22469;48.150;14.004;2022-10-26T15:27:12;98614.09;;;19.22;67.12
3260;BME280;22469;48.150;14.004;2022-10-26T15:29:47;98619.38;;;19.20;66.67
3260;BME280;22469;48.150;14.004;2022-10-26T15:35:25;98622.91;;;19.19;67.16
3260;BME280;22469;48.150;14.004;2022-10-26T15:37:57;98628.44;;;19.13;68.05
3260;BME280;22469;48.150;14.004;2022-10-26T15:40:25;98627.59;;;19.12;67.83
3260;BME280;22469;48.150;14.004;2022-10-26T15:42:58;98638.00;;;19.12;67.43
3260;BME280;22469;48.150;14.004;2022-10-26T15:45:43;98631.31;;;19.08;67.91
3260;BME280;22469;48.150;14.004;2022-10-26T15:48:27;98640.56;;;18.98;68.27